Latest Weather Observations for Laverton

IDV60901

Issued at 1:21 am EDT Friday 24 March 2017 (issued every 10 minutes, with the page automatically refreshed every 10 minutes)

About weather observations | Map of Melbourne area stations | Latest observations for Melbourne area | Other Formats
Station Details ID: 087031 Name: LAVERTON RAAF Lat: -37.86 Lon: 144.76 Height: 20.1 m
Data from the previous 72 hours. | See also: Recent months at Laverton
Date/Time
EDT
Temp
°C
App
Temp
°C
Dew
Point
°C
Rel
Hum
%
Delta-T
°C
Wind Press
QNH
hPa
Press
MSL
hPa
Rain since
9am
mm
Dir  Spd
km/h
Gust
km/h
Spd
kts
Gust
kts
24/01:00am 16.4 15.4 13.5 83 1.6 E 11 19 6 10 1020.3 1020.2 0.0
24/12:30am 16.7 15.0 13.6 82 1.7 ESE 15 22 8 12 1020.3 1020.2 0.0
24/12:00am 16.9 14.4 13.6 81 1.9 ESE 19 26 10 14 1020.4 1020.3 0.0
 
Date/Time
EDT
Temp
°C
App
Temp
°C
Dew
Point
°C
Rel
Hum
%
Delta-T
°C
Wind Press
QNH
hPa
Press
MSL
hPa
Rain since
9am
mm
Dir  Spd
km/h
Gust
km/h
Spd
kts
Gust
kts
23/11:30pm 17.1 14.6 13.6 80 2.0 ESE 19 30 10 16 1020.7 1020.6 0.0
23/11:00pm 17.4 14.8 13.7 79 2.1 ESE 20 30 11 16 1020.4 1020.3 0.0
23/10:30pm 17.8 15.2 13.9 78 2.2 ESE 20 35 11 19 1021.0 1020.9 0.0
23/10:00pm 18.4 15.5 14.1 76 2.5 ESE 22 41 12 22 1020.9 1020.8 0.0
23/09:30pm 18.6 15.3 14.1 75 2.6 ESE 24 35 13 19 1020.3 1020.2 0.0
23/09:00pm 19.0 15.7 14.1 73 2.8 ESE 24 41 13 22 1020.0 1019.9 0.0
23/08:30pm 19.5 16.9 13.9 70 3.2 SE 20 32 11 17 1019.6 1019.5 0.0
23/08:00pm 20.0 17.1 14.1 69 3.4 SE 22 33 12 18 1019.1 1019.0 0.0
23/07:30pm 20.6 16.9 14.0 66 3.8 SE 26 41 14 22 1018.6 1018.5 0.0
23/07:00pm 21.2 17.6 14.1 64 4.1 SE 26 43 14 23 1018.6 1018.5 0.0
23/06:30pm 22.1 18.8 14.0 60 4.7 SE 24 39 13 21 1018.6 1018.5 0.0
23/06:00pm 22.6 19.4 14.2 59 4.9 SE 24 39 13 21 1018.5 1018.4 0.0
23/05:30pm 22.8 19.7 14.4 59 4.9 SSE 24 35 13 19 1018.6 1018.5 0.0
23/05:00pm 23.2 19.3 13.4 54 5.7 SE 26 39 14 21 1018.5 1018.4 0.0
23/04:30pm 23.1 18.8 13.3 54 5.7 SSE 28 39 15 21 1018.5 1018.4 0.0
23/04:00pm 23.2 18.7 13.7 55 5.5 SE 30 39 16 21 1018.8 1018.7 0.0
23/03:30pm 23.7 20.3 13.8 53 5.8 SSE 24 33 13 18 1019.0 1018.9 0.0
23/03:00pm 23.4 19.1 13.3 53 5.8 SE 28 41 15 22 1018.8 1018.7 0.0
23/02:30pm 22.6 18.5 13.7 57 5.2 SSE 28 41 15 22 1019.3 1019.2 0.0
23/02:00pm 22.2 18.4 13.5 57 5.0 SE 26 39 14 21 1019.5 1019.4 0.0
23/01:30pm 21.9 17.7 13.5 59 4.8 SE 28 39 15 21 1019.9 1019.8 0.0
23/01:00pm 21.7 17.0 13.3 59 4.8 SE 30 43 16 23 1020.1 1020.0 0.0
23/12:30pm 21.1 16.4 13.3 61 4.5 SE 30 41 16 22 1020.5 1020.4 0.0
23/12:00pm 20.9 17.1 13.6 63 4.2 ESE 26 41 14 22 1020.6 1020.5 0.0
23/11:30am 20.4 16.3 13.8 66 3.8 SE 28 39 15 21 1020.9 1020.8 0.0
23/11:00am 20.1 16.4 13.8 67 3.6 ESE 26 35 14 19 1020.9 1020.8 0.0
23/10:30am 18.5 14.9 14.2 76 2.5 SE 26 39 14 21 1021.1 1021.0 0.0
23/10:00am 18.0 14.7 13.9 77 2.3 ESE 24 44 13 24 1021.1 1021.0 0.0
23/09:30am 17.8 13.7 13.9 78 2.2 ESE 28 43 15 23 1020.9 1020.8 0.0
23/09:00am 17.5 13.3 13.6 78 2.2 ESE 28 43 15 23 1020.6 1020.5 0.4
23/08:30am 17.4 12.9 13.9 80 2.0 ESE 30 50 16 27 1020.5 1020.4 0.4
23/08:00am 17.1 13.0 13.8 81 1.9 ESE 28 43 15 23 1020.4 1020.3 0.4
23/07:32am 17.1 13.0 13.8 81 1.9 ESE 28 46 15 25 1020.1 1020.0 0.4
23/07:30am 17.1 12.5 13.6 80 2.0 ESE 30 46 16 25 1020.0 1019.9 0.4
23/07:11am 17.2 13.1 13.7 80 2.0 ESE 28 46 15 25 1019.9 1019.8 0.4
23/07:00am 17.3 13.6 14.0 81 1.9 ESE 26 39 14 21 1019.8 1019.7 0.4
23/06:31am 17.0 12.5 13.7 81 1.9 ESE 30 48 16 26 1019.7 1019.6 0.4
23/06:30am 17.0 12.9 13.7 81 1.9 ESE 28 44 15 24 1019.7 1019.6 0.4
23/06:00am 17.1 13.8 14.0 82 1.8 ESE 24 33 13 18 1019.7 1019.6 0.4
23/05:30am 17.2 13.1 13.9 81 1.9 ESE 28 43 15 23 1019.5 1019.4 0.4
23/05:00am 17.0 13.6 13.7 81 1.9 ESE 24 43 13 23 1019.5 1019.4 0.4
23/04:30am 16.9 13.2 13.8 82 1.8 ESE 26 39 14 21 1019.4 1019.3 0.4
23/04:00am 16.6 13.3 13.9 84 1.5 ESE 24 43 13 23 1019.3 1019.2 0.4
23/03:30am 16.7 13.3 13.6 82 1.7 SE 24 39 13 21 1019.2 1019.1 0.4
23/03:17am 16.8 12.7 13.9 83 1.6 SE 28 46 15 25 1019.2 1019.1 0.4
23/03:00am 16.7 13.3 13.8 83 1.6 ESE 24 37 13 20 1019.2 1019.1 0.4
23/02:30am 16.7 13.3 13.6 82 1.7 ESE 24 37 13 20 1019.2 1019.1 0.4
23/02:00am 16.7 13.3 13.6 82 1.7 ESE 24 39 13 21 1019.4 1019.3 0.4
23/01:30am 16.9 13.1 13.6 81 1.9 ESE 26 37 14 20 1019.8 1019.7 0.4
23/01:00am 17.0 13.2 13.7 81 1.9 ESE 26 41 14 22 1019.9 1019.8 0.4
23/12:30am 17.1 12.5 13.6 80 2.0 ESE 30 46 16 25 1019.8 1019.7 0.4
23/12:00am 17.3 12.4 13.8 80 2.0 ESE 32 50 17 27 1019.8 1019.7 0.4
 
Date/Time
EDT
Temp
°C
App
Temp
°C
Dew
Point
°C
Rel
Hum
%
Delta-T
°C
Wind Press
QNH
hPa
Press
MSL
hPa
Rain since
9am
mm
Dir  Spd
km/h
Gust
km/h
Spd
kts
Gust
kts
22/11:59pm 17.4 12.6 13.9 80 2.0 ESE 32 50 17 27 1019.8 1019.7 0.4
22/11:30pm 17.8 13.0 14.1 79 2.1 ESE 32 46 17 25 1019.9 1019.8 0.4
22/11:13pm 18.0 14.1 14.3 79 2.1 ESE 28 46 15 25 1020.0 1019.9 0.4
22/11:00pm 18.1 13.7 14.0 77 2.3 ESE 30 41 16 22 1020.0 1019.9 0.4
22/10:43pm 18.3 14.3 14.2 77 2.4 ESE 28 46 15 25 1020.0 1019.9 0.4
22/10:30pm 18.2 14.3 14.5 79 2.1 SE 28 44 15 24 1019.9 1019.8 0.4
22/10:00pm 18.4 14.1 14.5 78 2.2 ESE 30 43 16 23 1019.6 1019.5 0.4
22/09:51pm 18.5 14.6 14.4 77 2.4 ESE 28 52 15 28 1019.5 1019.4 0.4
22/09:30pm 18.5 15.5 14.8 79 2.2 SE 24 37 13 20 1019.4 1019.3 0.4
22/09:00pm 19.1 14.9 14.6 75 2.6 SE 30 44 16 24 1019.0 1018.9 0.4
22/08:30pm 19.2 15.4 14.7 75 2.6 SE 28 39 15 21 1018.6 1018.5 0.4
22/08:00pm 19.4 15.6 14.6 74 2.8 SE 28 44 15 24 1018.2 1018.1 0.4
22/07:30pm 19.4 15.9 14.6 74 2.8 SE 26 44 14 24 1017.6 1017.5 0.4
22/07:03pm 19.4 15.6 14.6 74 2.8 SE 28 46 15 25 1017.3 1017.2 0.4
22/07:00pm 19.5 15.8 15.0 75 2.6 SE 28 43 15 23 1017.3 1017.2 0.4
22/06:30pm 19.7 16.2 15.4 76 2.5 SE 28 44 15 24 1017.1 1017.0 0.2
22/06:00pm 19.5 15.2 15.4 77 2.4 SE 32 43 17 23 1017.0 1016.9 0.2
22/05:31pm 20.1 16.1 16.1 78 2.4 SE 32 50 17 27 1017.1 1017.0 0.2
22/05:30pm 20.1 15.9 16.1 78 2.4 SE 33 50 18 27 1017.0 1016.9 0.2
22/05:23pm 20.2 16.0 15.6 75 2.7 SE 32 50 17 27 1016.9 1016.8 0.2
22/05:00pm 20.5 16.4 15.9 75 2.7 SE 32 44 17 24 1016.8 1016.7 0.2
22/04:33pm 20.2 16.8 15.8 76 2.6 SSE 28 46 15 25 1016.8 1016.7 0.2
22/04:30pm 20.2 16.8 15.8 76 2.6 SE 28 39 15 21 1016.8 1016.7 0.2
22/04:00pm 20.3 16.9 15.9 76 2.6 SE 28 39 15 21 1016.7 1016.6 0.2
22/03:30pm 20.0 17.5 16.2 79 2.3 SSE 24 39 13 21 1016.9 1016.8 0.2
22/03:00pm 19.6 16.9 16.6 83 1.8 SE 26 41 14 22 1016.7 1016.6 0.2
22/02:54pm 19.5 16.9 16.9 85 1.6 SE 26 41 14 22 1016.7 1016.6 0.2
22/02:40pm 19.3 17.5 17.8 91 0.9 SE 24 37 13 20 1016.7 1016.6 0.2
22/02:30pm 18.8 18.1 18.6 99 0.1 SSE 20 32 11 17 1016.8 1016.7 0.2
22/02:19pm 18.4 16.7 18.2 99 0.1 SSE 24 37 13 20 1016.8 1016.7 0.2
22/02:05pm 18.6 17.0 17.4 93 0.7 SSE 22 32 12 17 1016.9 1016.8 0.2
22/02:00pm 18.7 17.1 17.4 92 0.8 SSE 22 35 12 19 1017.0 1016.9 0.2
22/01:30pm 19.1 16.9 16.9 87 1.3 SSE 24 33 13 18 1016.8 1016.7 0.2
22/01:10pm 19.4 17.0 16.4 83 1.8 SE 24 39 13 21 1016.9 1016.8 0.2
22/01:00pm 19.2 16.0 16.2 83 1.8 SE 28 41 15 22 1017.1 1017.0 0.2
22/12:49pm 19.2 16.5 16.6 85 1.6 SSE 26 39 14 21 1017.1 1017.0 0.2
22/12:30pm 19.4 17.8 17.4 88 1.2 SSE 22 39 12 21 1017.2 1017.1 0.2
22/12:24pm 19.2 17.0 17.0 87 1.3 SSE 24 39 13 21 1017.2 1017.1 0.2
22/12:00pm 19.0 17.0 17.3 90 1.0 SSE 24 37 13 20 1017.4 1017.3 0.2
22/11:52am 19.2 18.2 17.9 92 0.8 SE 20 32 11 17 1017.4 1017.3 0.2
22/11:43am 19.0 17.0 17.5 91 0.9 SE 24 33 13 18 1017.4 1017.3 0.2
22/11:30am 18.9 16.9 17.4 91 0.9 SE 24 32 13 17 1017.4 1017.3 0.2
22/11:00am 18.4 17.2 18.4 100 0.0 SSE 22 35 12 19 1017.2 1017.1 0.2
22/10:42am 18.3 17.4 18.3 100 0.0 SSE 20 30 11 16 1017.1 1017.0 0.2
22/10:30am 18.2 17.3 18.2 100 0.0 SSE 20 33 11 18 1017.1 1017.0 0.2
22/10:17am 18.1 17.2 18.1 100 0.0 SSE 20 30 11 16 1017.1 1017.0 0.0
22/10:06am 18.1 17.2 18.1 100 0.0 SSE 20 30 11 16 1017.0 1016.9 0.0
22/10:05am 18.2 17.3 18.2 100 0.0 SSE 20 30 11 16 1017.0 1016.9 0.0
22/10:00am 18.1 16.8 18.1 100 0.0 SSE 22 33 12 18 1017.0 1016.9 0.0
22/09:43am 17.9 16.1 17.9 100 0.0 SSE 24 35 13 19 1016.9 1016.8 0.0
22/09:33am 17.9 16.9 17.9 100 0.0 SSE 20 33 11 18 1016.8 1016.7 0.0
22/09:30am 17.9 16.4 17.7 99 0.1 SSE 22 32 12 17 1016.8 1016.7 0.0
22/09:03am 17.7 16.1 17.5 99 0.1 SSE 22 32 12 17 1016.6 1016.5 0.0
22/09:00am 17.7 16.1 17.5 99 0.1 SSE 22 37 12 20 1016.6 1016.5 14.2
22/08:30am 17.9 16.9 17.9 100 0.0 SSE 20 32 11 17 1016.3 1016.2 14.0
22/08:05am 17.9 16.5 17.9 100 0.0 SSE 22 39 12 21 1016.0 1015.9 14.0
22/08:02am 17.9 16.5 17.9 100 0.0 SSE 22 39 12 21 1016.0 1015.9 14.0
22/08:00am 17.9 16.1 17.9 100 0.0 SSE 24 39 13 21 1015.9 1015.8 14.0
22/07:52am 17.8 16.3 17.8 100 0.0 SSE 22 33 12 18 1015.8 1015.7 14.0
22/07:32am 17.7 16.8 17.7 100 0.0 S 19 30 10 16 1015.3 1015.2 13.8
22/07:30am 17.7 16.8 17.7 100 0.0 S 19 30 10 16 1015.3 1015.2 13.8
22/07:00am 17.7 15.8 17.7 100 0.0 S 24 39 13 21 1014.7 1014.6 13.8
22/06:30am 17.7 15.8 17.7 100 0.0 S 24 37 13 20 1014.3 1014.2 13.4
22/06:00am 17.5 15.5 17.5 100 0.0 S 24 33 13 18 1014.1 1014.0 13.2
22/05:43am 17.7 16.2 17.7 100 0.0 S 22 37 12 20 1013.9 1013.8 13.0
22/05:37am 17.7 16.2 17.7 100 0.0 S 22 37 12 20 1013.9 1013.8 13.0
22/05:30am 17.6 16.4 17.6 100 0.0 S 20 33 11 18 1013.9 1013.8 13.0
22/05:19am 17.6 16.4 17.6 100 0.0 S 20 35 11 19 1013.8 1013.7 13.0
22/05:07am 17.7 16.6 17.7 100 0.0 S 20 32 11 17 1013.6 1013.5 13.0
22/05:00am 17.7 16.6 17.7 100 0.0 S 20 30 11 16 1013.6 1013.5 13.0
22/04:30am 17.8 16.0 17.8 100 0.0 SSW 24 32 13 17 1013.3 1013.2 12.6
22/04:28am 17.7 15.8 17.7 100 0.0 SSW 24 33 13 18 1013.3 1013.2 12.6
22/04:17am 17.9 16.1 17.9 100 0.0 SSW 24 35 13 19 1013.1 1013.0 12.6
22/04:00am 18.2 17.9 18.2 100 0.0 SSW 17 26 9 14 1013.0 1012.9 12.6
22/03:30am 18.5 18.3 18.5 100 0.0 SSW 17 24 9 13 1012.7 1012.6 11.8
22/03:00am 18.8 18.7 18.8 100 0.0 S 17 24 9 13 1012.2 1012.1 11.4
22/02:50am 19.0 19.4 19.0 100 0.0 S 15 22 8 12 1012.0 1011.9 11.4
22/02:30am 19.1 18.8 19.1 100 0.0 SSW 19 26 10 14 1011.7 1011.6 11.4
22/02:00am 19.8 21.0 19.8 100 0.0 SW 13 20 7 11 1011.8 1011.7 11.4
22/01:30am 20.0 21.2 20.0 100 0.0 SSW 13 15 7 8 1011.3 1011.3 11.4
22/01:00am 20.2 21.5 20.2 100 0.0 SW 13 17 7 9 1011.1 1011.1 11.4
22/12:30am 20.2 21.9 20.2 100 0.0 WSW 11 17 6 9 1011.0 1011.0 11.4
22/12:00am 20.3 22.1 20.3 100 0.0 WSW 11 15 6 8 1011.0 1011.0 11.4
 
Date/Time
EDT
Temp
°C
App
Temp
°C
Dew
Point
°C
Rel
Hum
%
Delta-T
°C
Wind Press
QNH
hPa
Press
MSL
hPa
Rain since
9am
mm
Dir  Spd
km/h
Gust
km/h
Spd
kts
Gust
kts
21/11:30pm 20.4 21.8 20.4 100 0.0 W 13 19 7 10 1010.8 1010.8 11.4
21/11:00pm 20.2 20.4 20.2 100 0.0 WNW 19 24 10 13 1011.1 1011.1 11.4
21/10:30pm 20.3 20.9 20.3 100 0.0 WNW 17 20 9 11 1010.9 1010.9 11.4
21/10:03pm 20.5 21.6 20.5 100 0.0 WNW 15 20 8 11 1010.7 1010.7 11.4
21/10:00pm 20.5 21.2 20.5 100 0.0 WNW 17 20 9 11 1010.6 1010.6 11.4
21/09:50pm 20.5 21.2 20.5 100 0.0 W 17 20 9 11 1010.4 1010.4 11.4
21/09:30pm 20.7 21.9 20.7 100 0.0 WNW 15 20 8 11 1010.4 1010.4 11.4
21/09:29pm 20.7 21.9 20.7 100 0.0 WNW 15 20 8 11 1010.4 1010.4 11.4
21/09:13pm 20.4 21.1 20.4 100 0.0 NW 17 22 9 12 1010.1 1010.1 11.4
21/09:00pm 20.2 21.2 20.2 100 0.0 NW 15 20 8 11 1010.1 1010.1 11.4
21/08:57pm 20.2 20.8 20.2 100 0.0 NW 17 20 9 11 1010.0 1010.0 11.4
21/08:30pm 20.3 21.3 20.3 100 0.0 WNW 15 19 8 10 1009.7 1009.7 11.4
21/08:00pm 20.5 22.0 20.5 100 0.0 NW 13 17 7 9 1009.2 1009.2 11.4
21/07:30pm 21.6 23.1 20.6 94 0.6 WNW 13 17 7 9 1009.0 1009.0 11.4
21/07:00pm 22.9 25.9 21.9 94 0.7 WSW 9 11 5 6 1009.0 1009.0 11.4
21/06:30pm 22.6 27.2 21.8 95 0.5 CALM 0 0 0 0 1008.7 1008.7 11.4
21/06:00pm 22.3 26.0 22.3 100 0.0 SSW 6 9 3 5 1008.6 1008.6 11.4
21/05:40pm 22.6 25.3 22.1 97 0.3 SW 11 19 6 10 1008.8 1008.8 11.4
21/05:30pm 22.7 23.9 22.2 97 0.3 SSW 19 48 10 26 1008.8 1008.8 11.4
21/05:07pm 22.5 24.9 22.3 99 0.1 ESE 13 20 7 11 1008.4 1008.4 1.4
21/05:00pm 22.6 24.3 22.3 98 0.2 ESE 17 26 9 14 1008.3 1008.3 0.8
21/04:30pm 22.9 23.5 21.4 91 1.0 ESE 20 32 11 17 1008.8 1008.8 0.6
21/04:00pm 23.7 24.7 21.0 85 1.8 SE 17 22 9 12 1008.9 1008.9 0.6
21/03:30pm 23.5 24.6 21.2 87 1.5 SE 17 22 9 12 1009.5 1009.5 0.6
21/03:00pm 22.9 22.9 20.1 84 1.8 ESE 20 28 11 15 1009.7 1009.7 0.6
21/02:30pm 24.7 25.8 20.4 77 2.8 SE 15 19 8 10 1010.0 1010.0 0.6
21/02:00pm 25.0 26.2 20.0 74 3.2 SE 13 19 7 10 1010.2 1010.2 0.6
21/01:30pm 23.7 25.6 19.8 79 2.5 ESE 9 17 5 9 1010.9 1010.9 0.6
21/01:00pm 23.9 27.1 19.8 78 2.6 E 2 7 1 4 1011.4 1011.4 0.6
21/12:30pm 23.2 26.0 19.6 80 2.3 NE 4 7 2 4 1011.9 1011.8 0.6
21/12:00pm 22.6 25.0 19.6 83 1.9 WSW 6 9 3 5 1012.2 1012.1 0.6
21/11:30am 21.7 25.1 20.2 91 1.0 SW 2 6 1 3 1012.5 1012.4 0.6
21/11:00am 20.6 23.1 19.9 96 0.4 WSW 6 7 3 4 1013.1 1013.0 0.6
21/10:30am 20.3 23.7 20.1 99 0.1 S 2 9 1 5 1013.1 1013.0 0.6
21/10:29am 20.2 23.2 20.0 99 0.1 S 4 9 2 5 1013.1 1013.0 0.6
21/10:07am 20.3 22.5 19.6 96 0.4 SE 7 11 4 6 1013.1 1013.0 0.2
21/10:00am 20.3 22.5 19.5 95 0.5 SE 7 9 4 5 1013.1 1013.0 0.0
21/09:30am 20.3 21.7 19.6 96 0.4 SE 11 15 6 8 1013.1 1013.0 0.0
21/09:15am 20.3 22.3 20.0 98 0.2 SE 9 13 5 7 1013.2 1013.1 0.0
21/09:00am 20.3 22.7 20.1 99 0.1 SE 7 9 4 5 1013.3 1013.2 -
21/08:30am 19.9 23.2 19.9 100 0.0 SE 2 7 1 4 1013.2 1013.1 -
21/08:00am 19.6 22.4 19.6 100 0.0 SE 4 7 2 4 1013.2 1013.1 -
21/07:53am 19.6 22.4 19.6 100 0.0 SE 4 9 2 5 1013.2 1013.1 -
21/07:33am 19.4 22.5 19.4 100 0.0 ESE 2 9 1 5 1013.0 1012.9 -
21/07:30am 19.3 22.7 19.3 100 0.0 CALM 0 6 0 3 1013.0 1012.9 -
21/07:27am 19.3 22.7 19.3 100 0.0 CALM 0 0 0 0 1013.0 1012.9 -
21/07:13am 19.1 22.4 19.1 100 0.0 CALM 0 0 0 0 1012.9 1012.8 -
21/07:05am 19.1 22.4 19.1 100 0.0 CALM 0 0 0 0 1012.9 1012.8 -
21/07:04am 19.1 22.4 19.1 100 0.0 CALM 0 0 0 0 1012.9 1012.8 -
21/07:00am 19.0 22.3 19.0 100 0.0 CALM 0 0 0 0 1012.9 1012.8 -
21/06:30am 19.0 21.5 19.0 100 0.0 ESE 4 7 2 4 1013.1 1013.0 -
21/06:00am 19.0 22.3 19.0 100 0.0 CALM 0 0 0 0 1012.9 1012.8 -
21/05:58am 19.0 22.3 19.0 100 0.0 CALM 0 0 0 0 1013.0 1012.9 -
21/05:56am 19.0 22.3 19.0 100 0.0 CALM 0 4 0 2 1012.9 1012.8 -
21/05:30am 19.0 21.1 19.0 100 0.0 W 6 7 3 4 1012.9 1012.8 -
21/05:06am 19.1 21.0 18.9 99 0.1 WSW 7 9 4 5 1013.0 1012.9 -
21/05:00am 19.1 21.2 18.9 99 0.1 WSW 6 7 3 4 1013.1 1013.0 -
21/04:30am 19.2 20.5 18.5 96 0.4 W 9 11 5 6 1013.0 1012.9 -
21/04:00am 19.2 20.4 18.2 94 0.6 NW 9 11 5 6 1013.1 1013.0 -
21/03:30am 19.4 20.8 17.7 90 1.0 WNW 7 13 4 7 1013.3 1013.2 -
21/03:00am 19.5 20.2 18.0 91 0.9 WNW 11 15 6 8 1013.3 1013.2 0.0
21/02:30am 19.4 19.8 18.1 92 0.8 WNW 13 17 7 9 1013.8 1013.7 -
21/02:00am 19.3 19.0 18.3 94 0.6 NNW 17 22 9 12 1014.3 1014.2 -
21/01:30am 19.6 20.1 18.3 92 0.8 NW 13 15 7 8 1014.0 1013.9 -

Latest Capital City Observations: Canberra | Sydney | Melbourne | Brisbane | Adelaide | Perth | Hobart | Darwin

Other Formats:

Comma delimited format used in spreadsheet applications
http://www.bom.gov.au/fwo/IDV60901/IDV60901.94865.axf

JavaScript Object Notation format (JSON) in row-major order
http://www.bom.gov.au/fwo/IDV60901/IDV60901.94865.json